Time;durP1;ratioP1;P1;durP2;ratioP2;P2;SDS_P1;SDS_P2;PMS_P1;PMS_P2;Temp;Humidity;BMP_temperature;BMP_pressure;BME280_temperature;BME280_humidity;BME280_pressure;Samples;Min_cycle;Max_cycle;Signal;HPM_P1;HPM_P2
2023/01/04 00:01:08;;;;;;;4.75;1.83;;;;;;;;;;5090371;28;20078;-66
2023/01/04 00:03:34;;;;;;;5.10;1.30;;;;;;;;;;5080741;28;20040;-65
2023/01/04 00:06:03;;;;;;;8.02;1.50;;;;;;;;;;5087594;28;20048;-66
2023/01/04 00:08:29;;;;;;;5.68;2.45;;;;;;;;;;5084585;28;20044;-66
2023/01/04 00:11:05;;;;;;;2.58;1.13;;;;;;;;;;5087817;28;20773;-66
2023/01/04 00:13:32;;;;;;;4.60;1.50;;;;;;;;;;5089430;28;20043;-67
2023/01/04 00:16:02;;;;;;;8.32;1.80;;;;;;;;;;5091697;28;20054;-67
2023/01/04 00:18:34;;;;;;;4.30;1.65;;;;;;;;;;5090951;28;20515;-67
2023/01/04 00:21:11;;;;;;;5.18;1.70;;;;;;;;;;5084530;28;20054;-67
2023/01/04 00:23:38;;;;;;;6.30;1.75;;;;;;;;;;5075069;28;20451;-67
2023/01/04 00:26:08;;;;;;;5.57;1.65;;;;;;;;;;5077190;28;20048;-67
2023/01/04 00:28:34;;;;;;;4.50;1.55;;;;;;;;;;5093617;28;20828;-67
2023/01/04 00:31:02;;;;;;;5.13;2.30;;;;;;;;;;5074653;28;20044;-67
2023/01/04 00:33:29;;;;;;;4.53;1.55;;;;;;;;;;5086075;28;20127;-67
2023/01/04 00:35:55;;;;;;;5.63;1.88;;;;;;;;;;5079911;28;20469;-67
2023/01/04 00:38:22;;;;;;;10.70;1.73;;;;;;;;;;5080400;28;20052;-67
2023/01/04 00:40:48;;;;;;;7.15;2.03;;;;;;;;;;5086951;27;20047;-68
2023/01/04 00:43:14;;;;;;;6.25;2.38;;;;;;;;;;5081874;28;20480;-67
2023/01/04 00:45:42;;;;;;;6.40;1.98;;;;;;;;;;5087110;28;20395;-67
2023/01/04 00:48:08;;;;;;;7.70;2.00;;;;;;;;;;5082767;28;20044;-67
2023/01/04 00:50:34;;;;;;;6.13;2.03;;;;;;;;;;5083245;28;20350;-67
2023/01/04 00:53:01;;;;;;;6.88;2.00;;;;;;;;;;5084586;28;20044;-66
2023/01/04 00:55:28;;;;;;;5.78;2.10;;;;;;;;;;5086668;28;20044;-65
2023/01/04 00:57:55;;;;;;;7.10;2.13;;;;;;;;;;5092274;28;20094;-66
2023/01/04 01:00:22;;;;;;;8.35;1.83;;;;;;;;;;5080691;28;20044;-66
2023/01/04 01:02:48;;;;;;;7.68;2.10;;;;;;;;;;5086090;28;20048;-66
2023/01/04 01:05:15;;;;;;;10.45;1.52;;;;;;;;;;5080039;28;20147;-66
2023/01/04 01:07:42;;;;;;;9.48;2.10;;;;;;;;;;5086106;28;20051;-66
2023/01/04 01:10:08;;;;;;;5.55;1.58;;;;;;;;;;5090273;28;20071;-66
2023/01/04 01:12:34;;;;;;;8.15;2.38;;;;;;;;;;5085316;28;20035;-66
2023/01/04 01:15:01;;;;;;;5.65;1.40;;;;;;;;;;5094753;28;20037;-66
2023/01/04 01:17:27;;;;;;;5.90;1.70;;;;;;;;;;5087135;28;20040;-66
2023/01/04 01:19:53;;;;;;;8.70;1.98;;;;;;;;;;5089940;28;20051;-66
2023/01/04 01:22:19;;;;;;;4.82;2.00;;;;;;;;;;5079980;28;20055;-66
2023/01/04 01:24:46;;;;;;;5.25;1.70;;;;;;;;;;5091286;28;20052;-66
2023/01/04 01:27:12;;;;;;;5.07;1.38;;;;;;;;;;5097548;28;20060;-66
2023/01/04 01:29:38;;;;;;;3.72;1.70;;;;;;;;;;5092213;28;20135;-65
2023/01/04 01:32:05;;;;;;;7.80;1.77;;;;;;;;;;5097620;28;20527;-65
2023/01/04 01:34:31;;;;;;;3.63;1.50;;;;;;;;;;5084774;28;20160;-66
2023/01/04 01:36:57;;;;;;;7.93;1.45;;;;;;;;;;5081189;28;20036;-65
2023/01/04 01:39:24;;;;;;;3.22;1.20;;;;;;;;;;5099202;28;20194;-66
2023/01/04 01:41:50;;;;;;;3.45;1.63;;;;;;;;;;5101261;27;20088;-66
2023/01/04 01:44:37;;;;;;;5.35;1.60;;;;;;;;;;5100083;28;20052;-66
2023/01/04 01:47:03;;;;;;;4.28;1.58;;;;;;;;;;5047017;28;20043;-65
2023/01/04 01:49:37;;;;;;;6.70;1.60;;;;;;;;;;5098993;28;20399;-66
2023/01/04 01:52:05;;;;;;;4.15;1.40;;;;;;;;;;5084800;28;20119;-66
2023/01/04 01:54:33;;;;;;;2.22;1.30;;;;;;;;;;5094432;28;20058;-66
2023/01/04 01:57:01;;;;;;;2.83;1.07;;;;;;;;;;5084918;28;20097;-66
2023/01/04 01:59:28;;;;;;;6.53;1.73;;;;;;;;;;5091882;28;20496;-66
2023/01/04 02:01:54;;;;;;;2.20;1.20;;;;;;;;;;5091231;28;20051;-64
2023/01/04 02:04:21;;;;;;;5.43;1.50;;;;;;;;;;5102525;28;20052;-66
2023/01/04 02:06:49;;;;;;;4.82;1.30;;;;;;;;;;5104199;28;20139;-64
2023/01/04 02:09:16;;;;;;;5.07;1.40;;;;;;;;;;5092746;28;20191;-65
2023/01/04 02:11:43;;;;;;;4.82;1.52;;;;;;;;;;5085471;28;20066;-64
2023/01/04 02:14:27;;;;;;;4.35;1.67;;;;;;;;;;5084424;28;20059;-64
2023/01/04 02:16:59;;;;;;;3.70;1.45;;;;;;;;;;5086531;28;20051;-65
2023/01/04 02:19:45;;;;;;;1.98;1.30;;;;;;;;;;5096475;28;20432;-65
2023/01/04 02:22:30;;;;;;;5.32;1.58;;;;;;;;;;5091918;28;20558;-65
2023/01/04 02:25:14;;;;;;;4.35;1.52;;;;;;;;;;5083270;28;20044;-65
2023/01/04 02:27:40;;;;;;;2.80;1.30;;;;;;;;;;5089562;28;20044;-64
2023/01/04 02:30:15;;;;;;;4.45;1.30;;;;;;;;;;5096174;28;20059;-65
2023/01/04 02:32:42;;;;;;;4.05;1.60;;;;;;;;;;5096510;27;20154;-64
2023/01/04 02:35:16;;;;;;;3.35;1.92;;;;;;;;;;5092326;28;20055;-64
2023/01/04 02:37:49;;;;;;;2.15;1.83;;;;;;;;;;5083466;28;20052;-64
2023/01/04 02:40:19;;;;;;;2.42;1.50;;;;;;;;;;5090899;28;20520;-63
2023/01/04 02:46:03;;;;;;;3.78;1.50;;;;;;;;;;5088461;28;20136;-65
2023/01/04 02:51:29;;;;;;;5.75;1.80;;;;;;;;;;5106177;28;20053;-65
2023/01/04 02:53:58;;;;;;;1.73;1.27;;;;;;;;;;5094147;28;20047;-64
2023/01/04 02:56:43;;;;;;;2.05;1.13;;;;;;;;;;5082631;28;20483;-63
2023/01/04 02:59:22;;;;;;;1.70;1.02;;;;;;;;;;5105534;28;20059;-64
2023/01/04 03:07:56;;;;;;;3.65;1.27;;;;;;;;;;5084556;28;20062;-64
2023/01/04 03:10:39;;;;;;;4.13;1.20;;;;;;;;;;5088531;28;20048;-66
2023/01/04 03:13:26;;;;;;;1.98;1.00;;;;;;;;;;5096327;28;20048;-64
2023/01/04 03:15:54;;;;;;;1.60;0.85;;;;;;;;;;5097057;28;20088;-66
2023/01/04 03:18:23;;;;;;;3.72;1.00;;;;;;;;;;5082095;28;20086;-66
2023/01/04 03:20:49;;;;;;;;;;;;;;;;;;5099121;28;20051;-67
2023/01/04 03:37:09;;;;;;;1.05;0.90;;;;;;;;;;5082649;28;20063;-67
2023/01/04 03:48:33;;;;;;;2.78;1.30;;;;;;;;;;5087023;28;20059;-67
2023/01/04 03:51:19;;;;;;;1.90;1.10;;;;;;;;;;5095868;28;20043;-67
2023/01/04 03:53:52;;;;;;;1.75;0.98;;;;;;;;;;5088916;28;20048;-67
2023/01/04 03:56:21;;;;;;;2.60;1.10;;;;;;;;;;5087815;28;20052;-67
2023/01/04 03:58:48;;;;;;;1.25;0.80;;;;;;;;;;5093268;28;20058;-66
2023/01/04 04:01:17;;;;;;;3.67;1.40;;;;;;;;;;5095977;28;20535;-67
2023/01/04 04:09:13;;;;;;;2.42;1.27;;;;;;;;;;5100259;28;20056;-67
2023/01/04 04:11:39;;;;;;;1.42;1.08;;;;;;;;;;5089696;28;20036;-67
2023/01/04 04:14:05;;;;;;;3.10;1.10;;;;;;;;;;5090403;28;20471;-67
2023/01/04 04:16:31;;;;;;;1.85;1.23;;;;;;;;;;5086989;28;20043;-67
2023/01/04 04:18:58;;;;;;;2.53;1.23;;;;;;;;;;5070177;28;20048;-67
2023/01/04 04:21:33;;;;;;;1.85;1.40;;;;;;;;;;5099097;28;20444;-67
2023/01/04 04:23:59;;;;;;;1.70;1.17;;;;;;;;;;5099989;28;20044;-66
2023/01/04 04:26:25;;;;;;;2.22;1.30;;;;;;;;;;5097287;28;20048;-67
2023/01/04 04:28:52;;;;;;;2.22;1.02;;;;;;;;;;5079892;27;20044;-67
2023/01/04 04:31:18;;;;;;;1.50;1.40;;;;;;;;;;5092180;28;20044;-67
2023/01/04 04:33:45;;;;;;;1.33;1.23;;;;;;;;;;5068396;28;20496;-67
2023/01/04 04:36:11;;;;;;;3.13;1.80;;;;;;;;;;5089666;28;20063;-67
2023/01/04 04:38:37;;;;;;;2.97;1.50;;;;;;;;;;5092385;28;20051;-67
2023/01/04 04:43:56;;;;;;;2.55;1.50;;;;;;;;;;5090079;28;20044;-66
2023/01/04 04:46:23;;;;;;;2.17;1.77;;;;;;;;;;5083118;28;20427;-66
2023/01/04 04:48:49;;;;;;;3.20;1.92;;;;;;;;;;5104426;28;20055;-66
2023/01/04 04:51:16;;;;;;;2.72;1.90;;;;;;;;;;5081577;28;20052;-65
2023/01/04 04:53:42;;;;;;;2.88;1.50;;;;;;;;;;5098781;28;20044;-66
2023/01/04 04:56:09;;;;;;;2.05;1.38;;;;;;;;;;5088524;28;20070;-66
2023/01/04 04:58:35;;;;;;;1.88;1.40;;;;;;;;;;5082115;28;20054;-66
2023/01/04 05:01:02;;;;;;;1.52;1.25;;;;;;;;;;5097031;28;20044;-66
2023/01/04 05:03:28;;;;;;;4.22;1.60;;;;;;;;;;5089949;28;20043;-66
2023/01/04 05:05:55;;;;;;;1.92;1.40;;;;;;;;;;5090511;28;20048;-66
2023/01/04 05:08:21;;;;;;;1.90;1.17;;;;;;;;;;5080219;28;20056;-66
2023/01/04 05:10:47;;;;;;;3.03;1.73;;;;;;;;;;5088320;28;20055;-66
2023/01/04 05:13:13;;;;;;;4.47;1.60;;;;;;;;;;5093445;28;20488;-65
2023/01/04 05:15:44;;;;;;;2.10;1.40;;;;;;;;;;5095493;28;20066;-66
2023/01/04 05:18:11;;;;;;;3.92;1.80;;;;;;;;;;5100071;28;20048;-65
2023/01/04 05:20:37;;;;;;;2.78;1.63;;;;;;;;;;5092856;27;20431;-66
2023/01/04 05:23:04;;;;;;;2.95;1.40;;;;;;;;;;5092692;28;20048;-66
2023/01/04 05:25:31;;;;;;;1.92;1.40;;;;;;;;;;5083824;28;20052;-66
2023/01/04 05:27:57;;;;;;;2.88;1.60;;;;;;;;;;5088895;28;20536;-65
2023/01/04 05:33:09;;;;;;;2.95;2.10;;;;;;;;;;5082425;28;20056;-65
2023/01/04 05:35:35;;;;;;;2.33;1.45;;;;;;;;;;5104575;28;20053;-66
2023/01/04 05:38:02;;;;;;;3.60;2.00;;;;;;;;;;5096490;27;20047;-65
2023/01/04 05:40:28;;;;;;;3.25;1.90;;;;;;;;;;5088781;28;20051;-66
2023/01/04 05:42:54;;;;;;;3.25;1.85;;;;;;;;;;5086660;28;20051;-66
2023/01/04 05:45:21;;;;;;;4.75;1.98;;;;;;;;;;5092705;28;20101;-65
2023/01/04 05:47:49;;;;;;;3.78;2.00;;;;;;;;;;5087977;28;20408;-65
2023/01/04 05:50:16;;;;;;;4.95;2.00;;;;;;;;;;5081663;28;20044;-66
2023/01/04 05:52:42;;;;;;;2.92;2.03;;;;;;;;;;5089001;28;20055;-65
2023/01/04 05:55:08;;;;;;;4.88;1.63;;;;;;;;;;5074469;28;20109;-66
2023/01/04 05:57:35;;;;;;;5.10;1.75;;;;;;;;;;5088640;28;20044;-65
2023/01/04 06:00:02;;;;;;;2.50;1.75;;;;;;;;;;5089434;27;20134;-65
2023/01/04 06:02:29;;;;;;;7.60;1.83;;;;;;;;;;5080149;28;20041;-65
2023/01/04 06:04:56;;;;;;;3.80;1.98;;;;;;;;;;5095577;28;20044;-65
2023/01/04 06:07:25;;;;;;;5.28;2.38;;;;;;;;;;5092948;27;20139;-65
2023/01/04 06:09:51;;;;;;;2.22;1.65;;;;;;;;;;5086239;28;20044;-65
2023/01/04 06:12:18;;;;;;;4.35;1.77;;;;;;;;;;5091182;27;20047;-65
2023/01/04 06:14:44;;;;;;;2.88;1.60;;;;;;;;;;5101194;28;20512;-65
2023/01/04 06:17:11;;;;;;;3.30;1.80;;;;;;;;;;5102128;27;20099;-65
2023/01/04 06:19:37;;;;;;;5.53;1.60;;;;;;;;;;5095124;28;20139;-66
2023/01/04 06:22:04;;;;;;;5.25;2.30;;;;;;;;;;5089823;28;20150;-66
2023/01/04 06:24:30;;;;;;;8.60;1.88;;;;;;;;;;5081966;28;20040;-65
2023/01/04 06:26:56;;;;;;;3.10;1.45;;;;;;;;;;5103723;28;20051;-65
2023/01/04 06:29:22;;;;;;;3.58;1.65;;;;;;;;;;5091942;28;20044;-65
2023/01/04 06:31:49;;;;;;;5.13;1.77;;;;;;;;;;5092406;28;20055;-66
2023/01/04 06:34:15;;;;;;;2.70;1.27;;;;;;;;;;5094447;28;20078;-65
2023/01/04 06:36:41;;;;;;;3.35;1.80;;;;;;;;;;5092113;28;20047;-67
2023/01/04 06:39:08;;;;;;;3.53;1.75;;;;;;;;;;5095098;28;20051;-66
2023/01/04 06:41:34;;;;;;;3.70;1.63;;;;;;;;;;5089066;28;20058;-66
2023/01/04 06:44:01;;;;;;;2.80;1.70;;;;;;;;;;5092201;28;20044;-65
2023/01/04 06:46:27;;;;;;;2.85;1.70;;;;;;;;;;5094668;27;20097;-66
2023/01/04 06:48:53;;;;;;;1.90;1.42;;;;;;;;;;5095057;28;20169;-66
2023/01/04 06:51:20;;;;;;;2.08;1.58;;;;;;;;;;5101448;28;20043;-66
2023/01/04 06:53:47;;;;;;;2.58;1.70;;;;;;;;;;5080689;28;20040;-66
2023/01/04 06:56:13;;;;;;;2.15;1.60;;;;;;;;;;5088349;28;20443;-66
2023/01/04 06:58:39;;;;;;;2.15;1.40;;;;;;;;;;5084700;28;20048;-66
2023/01/04 07:01:06;;;;;;;2.88;1.42;;;;;;;;;;5087705;28;20117;-66
2023/01/04 07:03:33;;;;;;;2.35;1.38;;;;;;;;;;5088894;28;20043;-67
2023/01/04 07:06:02;;;;;;;3.53;1.60;;;;;;;;;;5087403;28;20059;-67
2023/01/04 07:08:28;;;;;;;2.38;1.58;;;;;;;;;;5090799;28;20488;-66
2023/01/04 07:10:55;;;;;;;2.47;1.60;;;;;;;;;;5090487;28;20093;-67
2023/01/04 07:13:21;;;;;;;3.05;1.70;;;;;;;;;;5105864;27;20055;-66
2023/01/04 07:15:47;;;;;;;3.10;1.70;;;;;;;;;;5088827;28;20047;-66
2023/01/04 07:18:13;;;;;;;3.80;1.40;;;;;;;;;;5092991;28;20079;-66
2023/01/04 07:20:40;;;;;;;3.45;1.23;;;;;;;;;;5082387;28;20052;-66
2023/01/04 07:23:06;;;;;;;3.45;1.20;;;;;;;;;;5090164;28;20044;-66
2023/01/04 07:25:32;;;;;;;2.35;1.45;;;;;;;;;;5089159;28;20096;-67
2023/01/04 07:27:59;;;;;;;5.57;1.88;;;;;;;;;;5087535;28;20796;-67
2023/01/04 07:30:25;;;;;;;1.42;1.13;;;;;;;;;;5088157;28;20052;-68
2023/01/04 07:32:52;;;;;;;4.07;1.50;;;;;;;;;;5087084;28;20044;-66
2023/01/04 07:35:19;;;;;;;2.17;1.10;;;;;;;;;;5088674;28;20148;-66
2023/01/04 07:37:45;;;;;;;2.83;1.10;;;;;;;;;;5086502;28;20048;-66
2023/01/04 07:40:14;;;;;;;2.55;1.23;;;;;;;;;;5085698;28;20063;-66
2023/01/04 07:42:41;;;;;;;5.45;1.45;;;;;;;;;;5091041;28;20044;-66
2023/01/04 07:45:07;;;;;;;1.92;1.20;;;;;;;;;;5091051;28;20428;-65
2023/01/04 07:47:34;;;;;;;2.80;1.17;;;;;;;;;;5087473;28;20511;-66
2023/01/04 07:50:00;;;;;;;3.90;1.58;;;;;;;;;;5079567;28;20511;-66
2023/01/04 07:52:26;;;;;;;3.88;1.30;;;;;;;;;;5075523;28;20492;-66
2023/01/04 07:54:53;;;;;;;5.20;1.70;;;;;;;;;;5088279;28;20048;-66
2023/01/04 07:57:19;;;;;;;2.55;1.48;;;;;;;;;;5090110;28;20039;-66
2023/01/04 07:59:45;;;;;;;2.40;1.40;;;;;;;;;;5094204;28;20048;-66
2023/01/04 08:02:12;;;;;;;4.45;1.65;;;;;;;;;;5092207;28;20443;-67
2023/01/04 08:04:38;;;;;;;5.45;1.58;;;;;;;;;;5087703;28;20130;-66
2023/01/04 08:07:05;;;;;;;3.53;1.52;;;;;;;;;;5076895;28;20072;-67
2023/01/04 08:09:31;;;;;;;2.72;1.77;;;;;;;;;;5089229;28;20412;-68
2023/01/04 08:11:57;;;;;;;3.15;1.70;;;;;;;;;;5101058;28;20088;-66
2023/01/04 08:14:24;;;;;;;3.20;1.70;;;;;;;;;;5095590;28;20057;-65
2023/01/04 08:16:50;;;;;;;5.97;2.00;;;;;;;;;;5096221;27;20100;-68
2023/01/04 08:19:18;;;;;;;3.03;1.77;;;;;;;;;;5066066;28;20075;-67
2023/01/04 08:21:45;;;;;;;4.90;1.85;;;;;;;;;;5091887;28;20040;-68
2023/01/04 08:24:13;;;;;;;3.53;1.83;;;;;;;;;;5093347;28;20066;-67
2023/01/04 08:26:39;;;;;;;2.50;1.60;;;;;;;;;;5101139;28;20043;-67
2023/01/04 08:29:06;;;;;;;4.55;1.90;;;;;;;;;;5089309;28;20074;-67
2023/01/04 08:31:32;;;;;;;3.40;2.03;;;;;;;;;;5082671;28;20044;-67
2023/01/04 08:34:03;;;;;;;3.15;1.60;;;;;;;;;;5090378;28;20415;-67
2023/01/04 08:36:31;;;;;;;4.90;1.80;;;;;;;;;;5080212;27;20047;-68
2023/01/04 08:38:58;;;;;;;2.95;1.10;;;;;;;;;;5096921;28;20065;-66
2023/01/04 08:41:27;;;;;;;3.03;1.40;;;;;;;;;;5099065;28;20131;-66
2023/01/04 08:44:13;;;;;;;3.78;1.50;;;;;;;;;;5075692;28;20051;-68
2023/01/04 08:46:39;;;;;;;2.35;1.15;;;;;;;;;;5080965;28;20149;-68
2023/01/04 08:49:06;;;;;;;2.58;1.30;;;;;;;;;;5081488;28;20090;-68
2023/01/04 08:51:36;;;;;;;3.08;1.40;;;;;;;;;;5093963;28;20095;-67
2023/01/04 08:54:02;;;;;;;2.97;1.52;;;;;;;;;;5086026;28;20044;-68
2023/01/04 08:56:28;;;;;;;1.98;1.55;;;;;;;;;;5092413;28;20507;-66
2023/01/04 08:58:55;;;;;;;2.67;1.30;;;;;;;;;;5084908;28;20158;-67
2023/01/04 09:01:21;;;;;;;3.15;1.35;;;;;;;;;;5062797;28;20058;-67
2023/01/04 09:03:48;;;;;;;2.45;1.20;;;;;;;;;;5092331;28;20484;-66
2023/01/04 09:06:14;;;;;;;4.30;1.58;;;;;;;;;;5089387;28;20048;-67
2023/01/04 09:08:42;;;;;;;1.83;1.38;;;;;;;;;;5096901;28;20070;-68
2023/01/04 09:11:11;;;;;;;3.10;1.50;;;;;;;;;;5094812;28;20511;-68
2023/01/04 09:13:38;;;;;;;3.95;1.30;;;;;;;;;;5089744;28;20288;-68
2023/01/04 09:16:05;;;;;;;2.53;1.20;;;;;;;;;;5092588;28;20043;-68
2023/01/04 09:18:32;;;;;;;2.92;1.60;;;;;;;;;;5086905;28;20061;-67
2023/01/04 09:21:03;;;;;;;3.72;1.88;;;;;;;;;;5089878;28;20126;-67
2023/01/04 09:23:30;;;;;;;2.83;1.60;;;;;;;;;;5085088;28;20052;-67
2023/01/04 09:25:56;;;;;;;3.53;1.83;;;;;;;;;;5082771;28;20123;-67
2023/01/04 09:28:22;;;;;;;4.60;1.70;;;;;;;;;;5082479;28;20058;-67
2023/01/04 09:30:49;;;;;;;3.83;1.50;;;;;;;;;;5087789;28;20040;-68
2023/01/04 09:33:15;;;;;;;3.63;1.60;;;;;;;;;;5095035;28;20052;-69
2023/01/04 09:35:42;;;;;;;3.80;1.75;;;;;;;;;;5072680;28;20487;-67
2023/01/04 09:38:08;;;;;;;3.92;1.90;;;;;;;;;;5095540;28;20056;-66
2023/01/04 09:40:44;;;;;;;4.00;1.73;;;;;;;;;;5087907;28;20135;-68
2023/01/04 09:43:16;;;;;;;3.42;1.63;;;;;;;;;;5094550;28;20052;-68
2023/01/04 09:45:48;;;;;;;3.20;1.77;;;;;;;;;;5094341;28;20469;-69
2023/01/04 09:48:19;;;;;;;2.65;1.80;;;;;;;;;;5087992;28;20443;-67
2023/01/04 09:50:53;;;;;;;5.90;2.10;;;;;;;;;;5097369;28;20065;-69
2023/01/04 09:53:23;;;;;;;5.43;1.83;;;;;;;;;;5092979;28;20112;-67
2023/01/04 09:55:53;;;;;;;4.05;1.60;;;;;;;;;;5084117;28;20078;-66
2023/01/04 09:58:23;;;;;;;4.18;1.98;;;;;;;;;;5085928;28;20071;-68
2023/01/04 10:00:51;;;;;;;3.75;2.00;;;;;;;;;;5091857;28;20043;-67
2023/01/04 10:03:34;;;;;;;3.80;1.75;;;;;;;;;;5108515;27;20051;-68
2023/01/04 10:06:01;;;;;;;3.40;1.85;;;;;;;;;;5086940;28;20081;-68
2023/01/04 10:08:30;;;;;;;5.38;1.85;;;;;;;;;;5092363;27;20085;-68
2023/01/04 10:11:03;;;;;;;7.45;2.83;;;;;;;;;;5088366;27;20488;-68
2023/01/04 10:13:45;;;;;;;3.60;1.73;;;;;;;;;;5099060;28;20419;-68
2023/01/04 10:16:24;;;;;;;4.32;1.90;;;;;;;;;;5089145;28;20062;-68
2023/01/04 10:19:30;;;;;;;3.33;1.58;;;;;;;;;;5095028;28;20578;-67
2023/01/04 10:22:24;;;;;;;4.68;1.85;;;;;;;;;;5083205;28;20055;-66
2023/01/04 10:24:51;;;;;;;4.13;1.80;;;;;;;;;;5091565;28;20047;-66
2023/01/04 10:27:20;;;;;;;3.55;2.00;;;;;;;;;;5086096;28;20051;-66
2023/01/04 10:29:49;;;;;;;3.85;1.63;;;;;;;;;;5090405;28;20075;-66
2023/01/04 10:32:19;;;;;;;2.17;1.60;;;;;;;;;;5098697;28;20059;-67
2023/01/04 10:34:46;;;;;;;3.70;1.60;;;;;;;;;;5088862;28;20044;-65
2023/01/04 10:37:20;;;;;;;4.53;1.98;;;;;;;;;;5087678;28;20048;-67
2023/01/04 10:39:50;;;;;;;4.38;1.70;;;;;;;;;;5078729;28;20484;-67
2023/01/04 10:42:16;;;;;;;2.80;1.75;;;;;;;;;;5091517;28;20052;-67
2023/01/04 10:44:42;;;;;;;2.80;1.85;;;;;;;;;;5104212;28;20048;-67
2023/01/04 10:47:13;;;;;;;3.67;1.73;;;;;;;;;;5100442;28;20044;-67
2023/01/04 10:49:47;;;;;;;2.58;1.50;;;;;;;;;;5090688;28;20126;-67
2023/01/04 10:52:17;;;;;;;3.20;2.00;;;;;;;;;;5096657;28;20508;-68
2023/01/04 10:54:52;;;;;;;6.18;2.70;;;;;;;;;;5091407;28;20126;-67
2023/01/04 10:57:24;;;;;;;3.10;1.88;;;;;;;;;;5083515;28;20051;-67
2023/01/04 10:59:54;;;;;;;3.35;1.85;;;;;;;;;;5101589;27;20048;-67
2023/01/04 11:02:25;;;;;;;1.83;1.33;;;;;;;;;;5071562;28;20350;-67
2023/01/04 11:04:56;;;;;;;3.75;1.80;;;;;;;;;;5079175;28;20420;-67
2023/01/04 11:07:25;;;;;;;3.72;1.77;;;;;;;;;;5091108;28;20047;-67
2023/01/04 11:09:54;;;;;;;1.77;1.42;;;;;;;;;;5097840;28;20048;-67
2023/01/04 11:12:21;;;;;;;3.63;1.90;;;;;;;;;;5095590;28;20055;-66
2023/01/04 11:14:48;;;;;;;3.55;1.75;;;;;;;;;;5092936;28;20080;-66
2023/01/04 11:17:14;;;;;;;2.67;1.60;;;;;;;;;;5088676;28;20059;-66
2023/01/04 11:19:41;;;;;;;5.43;2.00;;;;;;;;;;5080263;28;20063;-67
2023/01/04 11:22:07;;;;;;;4.28;1.85;;;;;;;;;;5089151;28;20070;-66
2023/01/04 11:24:34;;;;;;;2.60;1.88;;;;;;;;;;5085089;28;20131;-67
2023/01/04 11:27:04;;;;;;;3.03;1.60;;;;;;;;;;5099176;28;20044;-67
2023/01/04 11:29:36;;;;;;;3.42;1.85;;;;;;;;;;5103897;28;20079;-67
2023/01/04 11:32:10;;;;;;;2.53;1.60;;;;;;;;;;5083367;27;20419;-67
2023/01/04 11:34:53;;;;;;;5.30;2.35;;;;;;;;;;5088675;28;20056;-67
2023/01/04 11:37:27;;;;;;;2.47;1.50;;;;;;;;;;5088971;28;20052;-67
2023/01/04 11:40:10;;;;;;;3.92;1.90;;;;;;;;;;5092568;28;20050;-67
2023/01/04 11:42:36;;;;;;;2.15;1.52;;;;;;;;;;5092312;28;20781;-67
2023/01/04 11:45:03;;;;;;;1.98;1.33;;;;;;;;;;5096318;28;20046;-68
2023/01/04 11:47:29;;;;;;;2.42;1.38;;;;;;;;;;5086855;28;20323;-68
2023/01/04 11:49:58;;;;;;;1.20;1.00;;;;;;;;;;5090761;28;20039;-67
2023/01/04 11:52:28;;;;;;;1.75;1.30;;;;;;;;;;5097242;28;20044;-69
2023/01/04 11:54:54;;;;;;;1.27;1.10;;;;;;;;;;5089846;28;20411;-68
2023/01/04 11:57:20;;;;;;;1.35;1.20;;;;;;;;;;5095132;28;20040;-68
2023/01/04 12:00:13;;;;;;;1.73;1.38;;;;;;;;;;5080059;28;20048;-66
2023/01/04 12:02:39;;;;;;;1.30;1.20;;;;;;;;;;5070528;28;20035;-68
2023/01/04 12:05:31;;;;;;;1.98;1.10;;;;;;;;;;5087806;28;20043;-66
2023/01/04 12:07:58;;;;;;;2.53;1.17;;;;;;;;;;5101937;28;20079;-66
2023/01/04 12:10:25;;;;;;;1.05;1.00;;;;;;;;;;5095881;28;20101;-66
2023/01/04 12:12:53;;;;;;;1.70;1.10;;;;;;;;;;5083919;28;20508;-67
2023/01/04 12:15:26;;;;;;;1.33;1.00;;;;;;;;;;5095541;28;20044;-65
2023/01/04 12:17:58;;;;;;;2.38;1.13;;;;;;;;;;5081636;28;20047;-66
2023/01/04 12:20:26;;;;;;;4.20;1.23;;;;;;;;;;5102791;27;20073;-66
2023/01/04 12:22:52;;;;;;;1.20;1.10;;;;;;;;;;5088096;28;20039;-66
2023/01/04 12:25:34;;;;;;;1.88;1.17;;;;;;;;;;5100819;28;20056;-67
2023/01/04 12:28:00;;;;;;;2.03;1.42;;;;;;;;;;5085189;28;20552;-67
2023/01/04 12:30:36;;;;;;;1.40;1.30;;;;;;;;;;5086697;28;20284;-68
2023/01/04 12:33:21;;;;;;;2.55;1.52;;;;;;;;;;5098135;28;20412;-67
2023/01/04 12:35:57;;;;;;;2.17;1.45;;;;;;;;;;5090812;28;20058;-67
2023/01/04 12:38:42;;;;;;;4.60;1.77;;;;;;;;;;5088748;28;20048;-67
2023/01/04 12:41:08;;;;;;;2.65;1.63;;;;;;;;;;5096146;28;20043;-67
2023/01/04 12:43:36;;;;;;;3.03;1.63;;;;;;;;;;5098025;28;20572;-67
2023/01/04 12:49:35;;;;;;;3.60;1.75;;;;;;;;;;5097832;28;20044;-70
2023/01/04 12:52:04;;;;;;;3.50;1.83;;;;;;;;;;5052654;28;20464;-72
2023/01/04 12:54:59;;;;;;;4.95;1.77;;;;;;;;;;5089916;28;20101;-71
2023/01/04 12:57:32;;;;;;;2.95;1.52;;;;;;;;;;5080725;28;20059;-70
2023/01/04 13:00:03;;;;;;;4.32;1.60;;;;;;;;;;5086889;28;20168;-68
2023/01/04 13:02:30;;;;;;;5.32;1.50;;;;;;;;;;5090093;28;20094;-68
2023/01/04 13:05:17;;;;;;;3.33;1.48;;;;;;;;;;5084659;28;20802;-68
2023/01/04 13:08:08;;;;;;;2.65;1.20;;;;;;;;;;5053511;28;20193;-68
2023/01/04 13:10:54;;;;;;;2.80;1.10;;;;;;;;;;5070704;28;20424;-69
2023/01/04 13:13:32;;;;;;;3.85;1.27;;;;;;;;;;5090948;28;20050;-68
2023/01/04 13:15:58;;;;;;;3.97;1.17;;;;;;;;;;5097374;28;20089;-69
2023/01/04 13:18:31;;;;;;;3.40;1.50;;;;;;;;;;5096598;28;20058;-66
2023/01/04 13:20:57;;;;;;;3.20;1.40;;;;;;;;;;5098711;28;20044;-66
2023/01/04 13:23:25;;;;;;;4.25;1.77;;;;;;;;;;5102466;28;20069;-67
2023/01/04 13:25:51;;;;;;;3.75;1.50;;;;;;;;;;5096515;28;20762;-68
2023/01/04 13:28:18;;;;;;;2.97;1.30;;;;;;;;;;5097527;28;20078;-69
2023/01/04 13:30:45;;;;;;;4.25;1.60;;;;;;;;;;5099656;28;20142;-68
2023/01/04 13:33:14;;;;;;;6.95;1.50;;;;;;;;;;5090238;28;20048;-67
2023/01/04 13:36:08;;;;;;;5.07;1.67;;;;;;;;;;5091553;28;20044;-68
2023/01/04 13:38:35;;;;;;;4.00;1.30;;;;;;;;;;5081919;28;20506;-70
2023/01/04 13:41:02;;;;;;;3.03;1.65;;;;;;;;;;5092240;28;20436;-68
2023/01/04 13:43:32;;;;;;;4.57;1.48;;;;;;;;;;5094902;28;20047;-67
2023/01/04 13:46:14;;;;;;;6.28;1.83;;;;;;;;;;5090773;28;20051;-68
2023/01/04 13:48:42;;;;;;;5.80;1.77;;;;;;;;;;5099183;28;20131;-67
2023/01/04 13:51:12;;;;;;;4.75;1.70;;;;;;;;;;5086301;28;20056;-68
2023/01/04 13:53:39;;;;;;;4.55;1.45;;;;;;;;;;5093594;28;20694;-71
2023/01/04 13:56:05;;;;;;;4.75;2.05;;;;;;;;;;5084184;28;20046;-68
2023/01/04 13:58:32;;;;;;;8.60;1.90;;;;;;;;;;5097792;28;20036;-68
2023/01/04 14:01:11;;;;;;;2.80;1.48;;;;;;;;;;5073415;28;20058;-67
2023/01/04 14:03:42;;;;;;;2.95;1.75;;;;;;;;;;5102009;28;20067;-67
2023/01/04 14:06:08;;;;;;;4.97;1.75;;;;;;;;;;5088631;28;20098;-69
2023/01/04 14:08:39;;;;;;;4.57;1.77;;;;;;;;;;5078575;28;20044;-68
2023/01/04 14:11:14;;;;;;;4.68;1.70;;;;;;;;;;5098686;28;20457;-68
2023/01/04 14:13:45;;;;;;;4.20;1.92;;;;;;;;;;5097209;28;20044;-69
2023/01/04 14:16:12;;;;;;;5.03;1.40;;;;;;;;;;5093245;28;20477;-68
2023/01/04 14:18:38;;;;;;;5.07;1.55;;;;;;;;;;5097993;28;20146;-68
2023/01/04 14:21:17;;;;;;;3.40;1.60;;;;;;;;;;5085796;28;20052;-68
2023/01/04 14:23:43;;;;;;;3.97;1.50;;;;;;;;;;5089991;28;20055;-67
2023/01/04 14:26:42;;;;;;;4.53;1.48;;;;;;;;;;5086383;28;20421;-68
2023/01/04 14:29:21;;;;;;;3.75;1.60;;;;;;;;;;5060694;28;20063;-69
2023/01/04 14:31:49;;;;;;;6.90;1.48;;;;;;;;;;5073832;28;20056;-67
2023/01/04 14:34:15;;;;;;;5.07;1.13;;;;;;;;;;5088893;28;20058;-70
2023/01/04 14:36:42;;;;;;;5.43;1.67;;;;;;;;;;5095743;27;20047;-68
2023/01/04 14:39:17;;;;;;;4.50;1.52;;;;;;;;;;5095829;27;20192;-69
2023/01/04 14:41:50;;;;;;;3.67;1.40;;;;;;;;;;5095332;28;20124;-69
2023/01/04 14:44:19;;;;;;;4.72;1.55;;;;;;;;;;5095642;28;20078;-68
2023/01/04 14:46:52;;;;;;;4.60;1.55;;;;;;;;;;5073994;28;20048;-70
2023/01/04 14:49:20;;;;;;;5.32;1.88;;;;;;;;;;5102976;28;20070;-70
2023/01/04 14:51:51;;;;;;;5.28;1.50;;;;;;;;;;5096825;28;20040;-68
2023/01/04 14:54:18;;;;;;;5.35;1.55;;;;;;;;;;5096528;28;20525;-69
2023/01/04 14:56:51;;;;;;;4.30;1.48;;;;;;;;;;5096025;28;20052;-71
2023/01/04 14:59:17;;;;;;;5.45;1.70;;;;;;;;;;5090653;28;20039;-67
2023/01/04 15:01:43;;;;;;;4.05;1.48;;;;;;;;;;5093923;28;20039;-70
2023/01/04 15:04:10;;;;;;;5.75;1.60;;;;;;;;;;5094081;28;20770;-67
2023/01/04 15:06:44;;;;;;;5.70;1.60;;;;;;;;;;5089817;28;20090;-68
2023/01/04 15:09:11;;;;;;;5.60;1.40;;;;;;;;;;5098676;28;20052;-67
2023/01/04 15:11:37;;;;;;;6.65;1.67;;;;;;;;;;5088870;28;20472;-67
2023/01/04 15:14:03;;;;;;;5.88;1.90;;;;;;;;;;5098114;28;20051;-68
2023/01/04 15:16:29;;;;;;;7.28;1.63;;;;;;;;;;5089169;28;20052;-68
2023/01/04 15:18:56;;;;;;;4.35;1.67;;;;;;;;;;5097590;28;20044;-68
2023/01/04 15:21:22;;;;;;;8.15;2.70;;;;;;;;;;5096154;28;20051;-69
2023/01/04 15:23:48;;;;;;;7.50;1.80;;;;;;;;;;5086887;28;20052;-70
2023/01/04 15:26:15;;;;;;;7.40;1.92;;;;;;;;;;5101917;28;20051;-69
2023/01/04 15:28:41;;;;;;;8.25;1.92;;;;;;;;;;5094683;28;20051;-68
2023/01/04 15:31:12;;;;;;;5.90;1.73;;;;;;;;;;5105601;28;20047;-69
2023/01/04 15:33:38;;;;;;;7.95;1.50;;;;;;;;;;5077274;28;20044;-66
2023/01/04 15:36:06;;;;;;;5.75;1.52;;;;;;;;;;5089721;28;20052;-67
2023/01/04 15:38:33;;;;;;;8.57;2.38;;;;;;;;;;5097799;28;20081;-67
2023/01/04 15:41:07;;;;;;;11.60;2.30;;;;;;;;;;5079628;28;20517;-66
2023/01/04 15:43:34;;;;;;;12.90;2.20;;;;;;;;;;5090558;28;20091;-66
2023/01/04 15:46:06;;;;;;;8.20;1.92;;;;;;;;;;5092351;28;20048;-66